Rava — 9A3550 — position and weather

sailwx.info

Track history (hours):
 
Tides and Currents Weather Stations Pressure Air Temp Water Temp Dewpoint Dewpoint Depression Visibility Wind Speed Wind Dir Waves Ship Positions

Rava

Last reported at 2018-Aug-14 05:52 UTC. Time now 2018-Aug-14 13:46 UTC.
Position N 37°42' E 006°10'.

Length 250 m; draft 14 m.

Type: Ship (hazmat cat D). MMSI: 238019000.

Date/timePositionNaut miles runAvg speedWind from/ knotsBaromVisibWave heightAir tempDewpointWater temp
2018-Aug-14 05:52N 37°42' E 006°10'30912.2
2018-Aug-13 04:33N 36°56' E 012°35'212.3
2018-Aug-13 04:22N 36°55' E 012°38'512.5
2018-Aug-13 04:00N 36°54' E 012°43'612.3
2018-Aug-13 03:30N 36°52' E 012°50'612.6
2018-Aug-13 03:00N 36°50' E 012°58'612.5
2018-Aug-13 02:30N 36°48' E 013°05'612.4
2018-Aug-13 02:00N 36°46' E 013°13'612.5
2018-Aug-13 01:30N 36°44' E 013°20'612.5
2018-Aug-13 01:00N 36°42' E 013°27'612.5
2018-Aug-13 00:30N 36°40' E 013°35'612.3
2018-Aug-13 00:00N 36°38' E 013°42'612.3
2018-Aug-12 23:30N 36°36' E 013°49'612.2
2018-Aug-12 23:00N 36°34' E 013°56'612.3
2018-Aug-12 22:30N 36°32' E 014°04'712.5
2018-Aug-12 21:57N 36°30' E 014°12'612.4
2018-Aug-12 21:30N 36°29' E 014°18'612.4
2018-Aug-12 21:00N 36°27' E 014°26'612.2
2018-Aug-12 20:30N 36°26' E 014°33'612.1
2018-Aug-12 20:01N 36°25' E 014°41'612.2
2018-Aug-12 19:30N 36°25' E 014°48'612.2
2018-Aug-12 19:00N 36°25' E 014°56'  
2018-Aug-07 21:41N 44°27' E 037°27'312.7
2018-Aug-07 21:29N 44°28' E 037°31'612.6
2018-Aug-07 21:00N 44°32' E 037°37'510.6
2018-Aug-07 20:30N 44°36' E 037°42'0 0.9
2018-Aug-07 20:00N 44°36' E 037°42'1 1.0
2018-Aug-07 19:30N 44°37' E 037°42'3 1.0
2018-Aug-07 16:04N 44°36' E 037°37'0 5.1
2018-Aug-07 16:00N 44°36' E 037°37'1 2.8
2018-Aug-07 15:30N 44°38' E 037°36'0 0.0
2018-Aug-06 23:32N 44°38' E 037°36'0 0.8
2018-Aug-06 23:30N 44°38' E 037°36'1 2.5
2018-Aug-06 23:01N 44°37' E 037°36'2 3.1
2018-Aug-06 22:31N 44°35' E 037°37'2 3.1
2018-Aug-06 22:01N 44°34' E 037°39'0 0.3
2018-Aug-06 21:30N 44°34' E 037°39'0 0.5
2018-Aug-06 21:01N 44°35' E 037°39'0 0.5
2018-Aug-06 20:31N 44°35' E 037°40'0 0.1
2018-Aug-06 20:00N 44°35' E 037°40'1 2.2
2018-Aug-06 19:31N 44°34' E 037°38'4 7.5
2018-Aug-06 19:00N 44°32' E 037°34'1 1.0
2018-Aug-06 18:09N 44°31' E 037°35'1 1.1
2018-Aug-06 17:15N 44°32' E 037°36'1 2.6
2018-Aug-06 17:00N 44°32' E 037°37'4 7.9
2018-Aug-06 16:30N 44°31' E 037°42'1 1.2
2018-Aug-06 16:00N 44°31' E 037°43'0 0.9
2018-Aug-06 15:30N 44°31' E 037°44'0 0.8
2018-Aug-06 14:58N 44°32' E 037°44'0 0.7
2018-Aug-06 14:31N 44°32' E 037°45'0 0.9
2018-Aug-06 14:01N 44°32' E 037°45'2 4.7
2018-Aug-06 13:31N 44°33' E 037°48'5 9.3
2018-Aug-06 13:01N 44°35' E 037°54'0 0.2
2018-Aug-06 12:28N 44°35' E 037°54'0 0.0
2018-Aug-06 11:58N 44°35' E 037°54'0 0.0
2018-Aug-06 11:28N 44°35' E 037°54'0 0.0
2018-Aug-06 10:58N 44°35' E 037°54'0 0.0
2018-Aug-06 10:28N 44°35' E 037°54'0 0.0
2018-Aug-06 09:58N 44°35' E 037°54'0 0.0
2018-Aug-06 09:28N 44°35' E 037°54'0 0.0
2018-Aug-06 08:55N 44°35' E 037°54'0 0.0
2018-Aug-06 08:28N 44°35' E 037°54'0 0.0
2018-Aug-06 07:58N 44°35' E 037°54'0 0.0
2018-Aug-06 07:28N 44°35' E 037°54'0 0.0
2018-Aug-06 06:58N 44°35' E 037°54'0 0.0
2018-Aug-06 06:28N 44°35' E 037°54'0 0.0
2018-Aug-06 05:58N 44°35' E 037°54'0 0.0
2018-Aug-06 05:28N 44°35' E 037°54'0 0.0
2018-Aug-06 04:58N 44°35' E 037°54'0 0.0
2018-Aug-06 04:28N 44°35' E 037°54'0 0.0
2018-Aug-06 03:58N 44°35' E 037°54'0 0.0
2018-Aug-06 03:28N 44°35' E 037°54'0 0.0
2018-Aug-06 02:58N 44°35' E 037°54'0 0.0
2018-Aug-06 02:28N 44°35' E 037°54'0 0.0
2018-Aug-06 01:58N 44°35' E 037°54'0 0.0
2018-Aug-06 01:28N 44°35' E 037°54'0 0.0
2018-Aug-06 00:58N 44°35' E 037°54'0 0.1
2018-Aug-06 00:28N 44°35' E 037°54'0 0.0
2018-Aug-05 23:58N 44°35' E 037°54'0 0.0
2018-Aug-05 23:28N 44°35' E 037°54'0 0.0
2018-Aug-05 22:58N 44°35' E 037°54'0 0.0
2018-Aug-05 22:28N 44°35' E 037°54'0 0.0
2018-Aug-05 21:58N 44°35' E 037°54'0 0.0
2018-Aug-05 21:28N 44°35' E 037°54'0 0.0
2018-Aug-05 20:58N 44°35' E 037°54'0 0.1
2018-Aug-05 20:28N 44°35' E 037°54'0 0.0
2018-Aug-05 19:58N 44°35' E 037°54'0 0.0
2018-Aug-05 19:28N 44°35' E 037°54'0 0.0
2018-Aug-05 18:58N 44°35' E 037°54'0 0.0
2018-Aug-05 18:25N 44°35' E 037°54'0 0.0
2018-Aug-05 17:58N 44°35' E 037°54'0 0.0
2018-Aug-05 17:28N 44°35' E 037°54'0 0.0
2018-Aug-05 16:58N 44°35' E 037°54'0 0.1
2018-Aug-05 16:28N 44°35' E 037°54'0 0.0
2018-Aug-05 15:58N 44°35' E 037°54'0 0.0
2018-Aug-05 15:25N 44°35' E 037°54'0 0.0
2018-Aug-05 14:58N 44°35' E 037°54'0 0.0
2018-Aug-05 13:58N 44°35' E 037°54'0 0.1
2018-Aug-05 13:28N 44°35' E 037°54'0 0.0
2018-Aug-05 12:58N 44°35' E 037°54'0 0.0
2018-Aug-05 12:28N 44°35' E 037°54'0 0.0
2018-Aug-05 11:58N 44°35' E 037°54'0 0.0
2018-Aug-05 11:28N 44°35' E 037°54'0 0.0
2018-Aug-05 10:58N 44°35' E 037°54'0 0.0
2018-Aug-05 10:28N 44°35' E 037°54'0 0.0
2018-Aug-05 09:58N 44°35' E 037°54'0 0.0
2018-Aug-05 09:28N 44°35' E 037°54'0 0.0
2018-Aug-05 08:58N 44°35' E 037°54'0 0.0
2018-Aug-05 08:28N 44°35' E 037°54'0 0.0
2018-Aug-05 07:58N 44°35' E 037°54'0 0.0
2018-Aug-05 07:28N 44°35' E 037°54'0 0.0
2018-Aug-05 06:55N 44°35' E 037°54'0 0.0
2018-Aug-05 06:28N 44°35' E 037°54'0 0.0
2018-Aug-05 05:58N 44°35' E 037°54'0 0.0
2018-Aug-05 05:28N 44°35' E 037°54'0 0.0
2018-Aug-05 04:58N 44°35' E 037°54'0 0.0
2018-Aug-05 04:28N 44°35' E 037°54'0 0.0
2018-Aug-05 03:58N 44°35' E 037°54'0 0.0
2018-Aug-05 03:28N 44°35' E 037°54'0 0.0
2018-Aug-05 02:58N 44°35' E 037°54'0 0.0
2018-Aug-05 02:28N 44°35' E 037°54'0 0.0
2018-Aug-05 01:58N 44°35' E 037°54'0 0.0
2018-Aug-05 01:28N 44°35' E 037°54'0 0.0
2018-Aug-05 00:58N 44°35' E 037°54'0 0.0
2018-Aug-05 00:28N 44°35' E 037°54'0 0.0
2018-Aug-04 23:58N 44°35' E 037°54'0 0.0
2018-Aug-04 23:28N 44°35' E 037°54'0 0.0
2018-Aug-04 22:58N 44°35' E 037°54'0 0.0
2018-Aug-04 22:28N 44°35' E 037°54'0 0.0
2018-Aug-04 21:58N 44°35' E 037°54'0 0.0
2018-Aug-04 21:28N 44°35' E 037°54'0 0.0
2018-Aug-04 20:58N 44°35' E 037°54'0 0.1
2018-Aug-04 20:28N 44°35' E 037°54'0 0.0
2018-Aug-04 19:58N 44°35' E 037°54'0 0.0
2018-Aug-04 19:28N 44°35' E 037°54'0 0.0
2018-Aug-04 18:58N 44°35' E 037°54'0 0.0
2018-Aug-04 18:28N 44°35' E 037°54'0 0.0
2018-Aug-04 17:58N 44°35' E 037°54'0 0.0
2018-Aug-04 17:28N 44°35' E 037°54'0 0.0
2018-Aug-04 16:55N 44°35' E 037°54'0 0.0
2018-Aug-04 16:28N 44°35' E 037°54'0 0.1
2018-Aug-04 15:58N 44°35' E 037°54'0 0.0
2018-Aug-04 15:28N 44°35' E 037°54'0 0.0
2018-Aug-04 14:58N 44°35' E 037°54'0 0.1
2018-Aug-04 14:28N 44°35' E 037°54'0 0.1
2018-Aug-04 13:58N 44°35' E 037°54'0 0.2
2018-Aug-04 13:28N 44°35' E 037°54'0 0.3
2018-Aug-04 12:58N 44°35' E 037°54'0 0.2
2018-Aug-04 12:28N 44°35' E 037°54'0 0.1
2018-Aug-04 11:58N 44°35' E 037°54'0 0.0
2018-Aug-04 11:28N 44°35' E 037°54'0 0.0
2018-Aug-04 10:58N 44°35' E 037°54'0 0.0
2018-Aug-04 10:28N 44°35' E 037°54'0 0.0
2018-Aug-04 09:58N 44°35' E 037°54'0 0.0
2018-Aug-04 09:28N 44°35' E 037°54'0 0.0
2018-Aug-04 08:55N 44°35' E 037°54'0 0.0
2018-Aug-04 08:28N 44°35' E 037°54'0 0.0
2018-Aug-04 07:58N 44°35' E 037°54'0 0.0
2018-Aug-04 07:28N 44°35' E 037°54'0 0.1
2018-Aug-04 06:58N 44°35' E 037°54'0 0.0
2018-Aug-04 06:28N 44°35' E 037°54'0 0.0
2018-Aug-04 05:58N 44°35' E 037°54'  
Track history (hours):
 
Tides and Currents Weather Stations Pressure Air Temp Water Temp Dewpoint Dewpoint Depression Visibility Wind Speed Wind Dir Waves Ship Positions

Rava

Last reported at 2018-Aug-14 05:52 UTC. Time now 2018-Aug-14 13:46 UTC.
Position N 37°42' E 006°10'.

Length 250 m; draft 14 m.

Type: Ship (hazmat cat D). MMSI: 238019000.

Date/timePositionNaut miles runAvg speedWind from/ knotsBaromVisibWave heightAir tempDewpointWater temp
2018-Aug-14 05:52N 37°42' E 006°10'30912.2
2018-Aug-13 04:33N 36°56' E 012°35'212.3
2018-Aug-13 04:22N 36°55' E 012°38'512.5
2018-Aug-13 04:00N 36°54' E 012°43'612.3
2018-Aug-13 03:30N 36°52' E 012°50'612.6
2018-Aug-13 03:00N 36°50' E 012°58'612.5
2018-Aug-13 02:30N 36°48' E 013°05'612.4
2018-Aug-13 02:00N 36°46' E 013°13'612.5
2018-Aug-13 01:30N 36°44' E 013°20'612.5
2018-Aug-13 01:00N 36°42' E 013°27'612.5
2018-Aug-13 00:30N 36°40' E 013°35'612.3
2018-Aug-13 00:00N 36°38' E 013°42'612.3
2018-Aug-12 23:30N 36°36' E 013°49'612.2
2018-Aug-12 23:00N 36°34' E 013°56'612.3
2018-Aug-12 22:30N 36°32' E 014°04'712.5
2018-Aug-12 21:57N 36°30' E 014°12'612.4
2018-Aug-12 21:30N 36°29' E 014°18'612.4
2018-Aug-12 21:00N 36°27' E 014°26'612.2
2018-Aug-12 20:30N 36°26' E 014°33'612.1
2018-Aug-12 20:01N 36°25' E 014°41'612.2
2018-Aug-12 19:30N 36°25' E 014°48'612.2
2018-Aug-12 19:00N 36°25' E 014°56'  
2018-Aug-07 21:41N 44°27' E 037°27'312.7
2018-Aug-07 21:29N 44°28' E 037°31'612.6
2018-Aug-07 21:00N 44°32' E 037°37'510.6
2018-Aug-07 20:30N 44°36' E 037°42'0 0.9
2018-Aug-07 20:00N 44°36' E 037°42'1 1.0
2018-Aug-07 19:30N 44°37' E 037°42'3 1.0
2018-Aug-07 16:04N 44°36' E 037°37'0 5.1
2018-Aug-07 16:00N 44°36' E 037°37'1 2.8
2018-Aug-07 15:30N 44°38' E 037°36'0 0.0
2018-Aug-06 23:32N 44°38' E 037°36'0 0.8
2018-Aug-06 23:30N 44°38' E 037°36'1 2.5
2018-Aug-06 23:01N 44°37' E 037°36'2 3.1
2018-Aug-06 22:31N 44°35' E 037°37'2 3.1
2018-Aug-06 22:01N 44°34' E 037°39'0 0.3
2018-Aug-06 21:30N 44°34' E 037°39'0 0.5
2018-Aug-06 21:01N 44°35' E 037°39'0 0.5
2018-Aug-06 20:31N 44°35' E 037°40'0 0.1
2018-Aug-06 20:00N 44°35' E 037°40'1 2.2
2018-Aug-06 19:31N 44°34' E 037°38'4 7.5
2018-Aug-06 19:00N 44°32' E 037°34'1 1.0
2018-Aug-06 18:09N 44°31' E 037°35'1 1.1
2018-Aug-06 17:15N 44°32' E 037°36'1 2.6
2018-Aug-06 17:00N 44°32' E 037°37'4 7.9
2018-Aug-06 16:30N 44°31' E 037°42'1 1.2
2018-Aug-06 16:00N 44°31' E 037°43'0 0.9
2018-Aug-06 15:30N 44°31' E 037°44'0 0.8
2018-Aug-06 14:58N 44°32' E 037°44'0 0.7
2018-Aug-06 14:31N 44°32' E 037°45'0 0.9
2018-Aug-06 14:01N 44°32' E 037°45'2 4.7
2018-Aug-06 13:31N 44°33' E 037°48'5 9.3
2018-Aug-06 13:01N 44°35' E 037°54'0 0.2
2018-Aug-06 12:28N 44°35' E 037°54'0 0.0
2018-Aug-06 11:58N 44°35' E 037°54'0 0.0
2018-Aug-06 11:28N 44°35' E 037°54'0 0.0
2018-Aug-06 10:58N 44°35' E 037°54'0 0.0
2018-Aug-06 10:28N 44°35' E 037°54'0 0.0
2018-Aug-06 09:58N 44°35' E 037°54'0 0.0
2018-Aug-06 09:28N 44°35' E 037°54'0 0.0
2018-Aug-06 08:55N 44°35' E 037°54'0 0.0
2018-Aug-06 08:28N 44°35' E 037°54'0 0.0
2018-Aug-06 07:58N 44°35' E 037°54'0 0.0
2018-Aug-06 07:28N 44°35' E 037°54'0 0.0
2018-Aug-06 06:58N 44°35' E 037°54'0 0.0
2018-Aug-06 06:28N 44°35' E 037°54'0 0.0
2018-Aug-06 05:58N 44°35' E 037°54'0 0.0
2018-Aug-06 05:28N 44°35' E 037°54'0 0.0
2018-Aug-06 04:58N 44°35' E 037°54'0 0.0
2018-Aug-06 04:28N 44°35' E 037°54'0 0.0
2018-Aug-06 03:58N 44°35' E 037°54'0 0.0
2018-Aug-06 03:28N 44°35' E 037°54'0 0.0
2018-Aug-06 02:58N 44°35' E 037°54'0 0.0
2018-Aug-06 02:28N 44°35' E 037°54'0 0.0
2018-Aug-06 01:58N 44°35' E 037°54'0 0.0
2018-Aug-06 01:28N 44°35' E 037°54'0 0.0
2018-Aug-06 00:58N 44°35' E 037°54'0 0.1
2018-Aug-06 00:28N 44°35' E 037°54'0 0.0
2018-Aug-05 23:58N 44°35' E 037°54'0 0.0
2018-Aug-05 23:28N 44°35' E 037°54'0 0.0
2018-Aug-05 22:58N 44°35' E 037°54'0 0.0
2018-Aug-05 22:28N 44°35' E 037°54'0 0.0
2018-Aug-05 21:58N 44°35' E 037°54'0 0.0
2018-Aug-05 21:28N 44°35' E 037°54'0 0.0
2018-Aug-05 20:58N 44°35' E 037°54'0 0.1
2018-Aug-05 20:28N 44°35' E 037°54'0 0.0
2018-Aug-05 19:58N 44°35' E 037°54'0 0.0
2018-Aug-05 19:28N 44°35' E 037°54'0 0.0
2018-Aug-05 18:58N 44°35' E 037°54'0 0.0
2018-Aug-05 18:25N 44°35' E 037°54'0 0.0
2018-Aug-05 17:58N 44°35' E 037°54'0 0.0
2018-Aug-05 17:28N 44°35' E 037°54'0 0.0
2018-Aug-05 16:58N 44°35' E 037°54'0 0.1
2018-Aug-05 16:28N 44°35' E 037°54'0 0.0
2018-Aug-05 15:58N 44°35' E 037°54'0 0.0
2018-Aug-05 15:25N 44°35' E 037°54'0 0.0
2018-Aug-05 14:58N 44°35' E 037°54'0 0.0
2018-Aug-05 13:58N 44°35' E 037°54'0 0.1
2018-Aug-05 13:28N 44°35' E 037°54'0 0.0
2018-Aug-05 12:58N 44°35' E 037°54'0 0.0
2018-Aug-05 12:28N 44°35' E 037°54'0 0.0
2018-Aug-05 11:58N 44°35' E 037°54'0 0.0
2018-Aug-05 11:28N 44°35' E 037°54'0 0.0
2018-Aug-05 10:58N 44°35' E 037°54'0 0.0
2018-Aug-05 10:28N 44°35' E 037°54'0 0.0
2018-Aug-05 09:58N 44°35' E 037°54'0 0.0
2018-Aug-05 09:28N 44°35' E 037°54'0 0.0
2018-Aug-05 08:58N 44°35' E 037°54'0 0.0
2018-Aug-05 08:28N 44°35' E 037°54'0 0.0
2018-Aug-05 07:58N 44°35' E 037°54'0 0.0
2018-Aug-05 07:28N 44°35' E 037°54'0 0.0
2018-Aug-05 06:55N 44°35' E 037°54'0 0.0
2018-Aug-05 06:28N 44°35' E 037°54'0 0.0
2018-Aug-05 05:58N 44°35' E 037°54'0 0.0
2018-Aug-05 05:28N 44°35' E 037°54'0 0.0
2018-Aug-05 04:58N 44°35' E 037°54'0 0.0
2018-Aug-05 04:28N 44°35' E 037°54'0 0.0
2018-Aug-05 03:58N 44°35' E 037°54'0 0.0
2018-Aug-05 03:28N 44°35' E 037°54'0 0.0
2018-Aug-05 02:58N 44°35' E 037°54'0 0.0
2018-Aug-05 02:28N 44°35' E 037°54'0 0.0
2018-Aug-05 01:58N 44°35' E 037°54'0 0.0
2018-Aug-05 01:28N 44°35' E 037°54'0 0.0
2018-Aug-05 00:58N 44°35' E 037°54'0 0.0
2018-Aug-05 00:28N 44°35' E 037°54'0 0.0
2018-Aug-04 23:58N 44°35' E 037°54'0 0.0
2018-Aug-04 23:28N 44°35' E 037°54'0 0.0
2018-Aug-04 22:58N 44°35' E 037°54'0 0.0
2018-Aug-04 22:28N 44°35' E 037°54'0 0.0
2018-Aug-04 21:58N 44°35' E 037°54'0 0.0
2018-Aug-04 21:28N 44°35' E 037°54'0 0.0
2018-Aug-04 20:58N 44°35' E 037°54'0 0.1
2018-Aug-04 20:28N 44°35' E 037°54'0 0.0
2018-Aug-04 19:58N 44°35' E 037°54'0 0.0
2018-Aug-04 19:28N 44°35' E 037°54'0 0.0
2018-Aug-04 18:58N 44°35' E 037°54'0 0.0
2018-Aug-04 18:28N 44°35' E 037°54'0 0.0
2018-Aug-04 17:58N 44°35' E 037°54'0 0.0
2018-Aug-04 17:28N 44°35' E 037°54'0 0.0
2018-Aug-04 16:55N 44°35' E 037°54'0 0.0
2018-Aug-04 16:28N 44°35' E 037°54'0 0.1
2018-Aug-04 15:58N 44°35' E 037°54'0 0.0
2018-Aug-04 15:28N 44°35' E 037°54'0 0.0
2018-Aug-04 14:58N 44°35' E 037°54'0 0.1
2018-Aug-04 14:28N 44°35' E 037°54'0 0.1
2018-Aug-04 13:58N 44°35' E 037°54'0 0.2
2018-Aug-04 13:28N 44°35' E 037°54'0 0.3
2018-Aug-04 12:58N 44°35' E 037°54'0 0.2
2018-Aug-04 12:28N 44°35' E 037°54'0 0.1
2018-Aug-04 11:58N 44°35' E 037°54'0 0.0
2018-Aug-04 11:28N 44°35' E 037°54'0 0.0
2018-Aug-04 10:58N 44°35' E 037°54'0 0.0
2018-Aug-04 10:28N 44°35' E 037°54'0 0.0
2018-Aug-04 09:58N 44°35' E 037°54'0 0.0
2018-Aug-04 09:28N 44°35' E 037°54'0 0.0
2018-Aug-04 08:55N 44°35' E 037°54'0 0.0
2018-Aug-04 08:28N 44°35' E 037°54'0 0.0
2018-Aug-04 07:58N 44°35' E 037°54'0 0.0
2018-Aug-04 07:28N 44°35' E 037°54'0 0.1
2018-Aug-04 06:58N 44°35' E 037°54'0 0.0
2018-Aug-04 06:28N 44°35' E 037°54'0 0.0
2018-Aug-04 05:58N 44°35' E 037°54'  

Dump ship's entire track history